Terminal Aerodrome Forecast
Issued by NWS

Home | Current Version | Previous Version | Text Only | Print | Product List | Glossary On
Versions: 1 2 3 4 5 6 7 8 9 10 11 12 13 14 15
000
FTUS43 KEAX 011700
TAFSTJ
TAF
KSTJ 011740Z 0118/0218 15007KT P6SM SCT035 BKN050
      TEMPO 0118/0120 6SM -SHRA BKN020
     FM020300 15006KT P6SM VCTS SCT025CB OVC040
     FM020900 15006KT P6SM SCT015 BKN025
     FM021500 18010KT 4SM TSRA SCT025CB OVC035CB
      TEMPO 0215/0218 2SM TSRA OVC025CB=

USA.gov is the U.S. government's official web portal to all federal, state and local government web resources and services.